createdAt,value
2022-09-30T00:00:23.873Z,19.90
2022-09-30T00:01:23.893Z,20.00
2022-09-30T00:02:23.854Z,20.90
2022-09-30T00:03:23.913Z,22.10
2022-09-30T00:04:23.836Z,23.60
2022-09-30T00:05:23.825Z,23.50
2022-09-30T00:06:23.814Z,22.00
2022-09-30T00:07:23.805Z,20.40
2022-09-30T00:08:23.795Z,19.50
2022-09-30T00:09:24.059Z,19.10
2022-09-30T00:10:23.776Z,18.40
2022-09-30T00:11:23.766Z,18.30
2022-09-30T00:12:23.762Z,17.10
2022-09-30T00:13:23.744Z,16.70
2022-09-30T00:14:23.736Z,16.90
2022-09-30T00:15:23.725Z,18.20
2022-09-30T00:16:23.768Z,18.10
2022-09-30T00:17:23.707Z,18.30
2022-09-30T00:18:23.697Z,18.20
2022-09-30T00:19:23.779Z,18.80
2022-09-30T00:20:23.677Z,18.20
2022-09-30T00:21:23.672Z,19.60
2022-09-30T00:22:23.656Z,18.30
2022-09-30T00:23:23.648Z,18.50
2022-09-30T00:24:23.638Z,18.60
2022-09-30T00:25:23.628Z,19.10
2022-09-30T00:26:23.617Z,18.40
2022-09-30T00:27:23.608Z,18.50
2022-09-30T00:28:23.598Z,18.20
2022-09-30T00:29:23.618Z,18.80
2022-09-30T00:30:23.574Z,20.30
2022-09-30T00:31:23.615Z,21.60
2022-09-30T00:32:23.558Z,21.20
2022-09-30T00:33:23.548Z,19.60
2022-09-30T00:34:23.541Z,18.70
2022-09-30T00:35:23.528Z,20.00
2022-09-30T00:36:23.519Z,18.30
2022-09-30T00:37:23.507Z,18.30
2022-09-30T00:38:23.498Z,19.00
2022-09-30T00:39:23.651Z,18.70
2022-09-30T00:40:23.481Z,18.90
2022-09-30T00:41:23.467Z,18.00
2022-09-30T00:42:23.458Z,17.70
2022-09-30T00:43:23.447Z,17.30
2022-09-30T00:44:23.484Z,17.60
2022-09-30T00:45:23.428Z,17.20
2022-09-30T00:46:23.457Z,17.40
2022-09-30T00:47:23.409Z,16.90
2022-09-30T00:48:23.397Z,17.50
2022-09-30T00:49:23.520Z,18.00
2022-09-30T00:50:23.378Z,18.00
2022-09-30T00:51:23.387Z,20.30
2022-09-30T00:52:23.360Z,20.30
2022-09-30T00:53:23.350Z,21.40
2022-09-30T00:54:23.338Z,21.40
2022-09-30T00:55:23.327Z,21.50
2022-09-30T00:56:23.318Z,21.50
2022-09-30T00:57:23.308Z,21.80
2022-09-30T00:58:23.298Z,20.90
2022-09-30T00:59:23.411Z,21.50
2022-09-30T01:00:23.311Z,20.80
2022-09-30T01:01:23.266Z,21.30
2022-09-30T01:02:23.283Z,21.70
2022-09-30T01:03:23.257Z,21.50
2022-09-30T01:04:23.237Z,22.30
2022-09-30T01:05:23.226Z,23.30
2022-09-30T01:06:23.216Z,23.60
2022-09-30T01:07:23.207Z,24.50
2022-09-30T01:08:23.197Z,22.30
2022-09-30T01:09:23.424Z,20.20
2022-09-30T01:10:23.175Z,20.80
2022-09-30T01:11:23.166Z,19.70
2022-09-30T01:12:23.156Z,19.40
2022-09-30T01:13:23.144Z,19.00
2022-09-30T01:14:23.133Z,18.90
2022-09-30T01:15:23.123Z,18.60
2022-09-30T01:16:23.167Z,17.70
2022-09-30T01:17:23.103Z,17.70
2022-09-30T01:18:23.094Z,16.80
2022-09-30T01:19:23.083Z,16.70
2022-09-30T01:20:23.073Z,17.30
2022-09-30T01:21:23.062Z,17.40
2022-09-30T01:22:23.052Z,18.30
2022-09-30T01:23:23.041Z,18.80
2022-09-30T01:24:23.031Z,19.10
2022-09-30T01:25:23.021Z,18.40
2022-09-30T01:26:23.012Z,18.50
2022-09-30T01:27:23.001Z,18.10
2022-09-30T01:28:22.990Z,18.50
2022-09-30T01:29:23.108Z,19.90
2022-09-30T01:30:22.970Z,19.30
2022-09-30T01:31:23.025Z,19.90
2022-09-30T01:32:22.950Z,20.00
2022-09-30T01:33:22.939Z,20.10
2022-09-30T01:34:22.929Z,20.90
2022-09-30T01:35:22.919Z,21.30
2022-09-30T01:36:22.909Z,21.50
2022-09-30T01:37:22.899Z,21.10
2022-09-30T01:38:22.887Z,21.90
2022-09-30T01:39:23.023Z,22.20
2022-09-30T01:40:22.873Z,22.50
2022-09-30T01:41:22.858Z,22.90
2022-09-30T01:42:22.846Z,22.20
2022-09-30T01:43:22.836Z,22.00
2022-09-30T01:44:22.826Z,21.50
2022-09-30T01:45:22.818Z,20.50
2022-09-30T01:46:22.848Z,19.80
2022-09-30T01:47:22.802Z,20.00
2022-09-30T01:48:22.786Z,19.50
2022-09-30T01:49:22.912Z,19.20
2022-09-30T01:50:22.765Z,18.70
2022-09-30T01:51:22.754Z,18.10
2022-09-30T01:52:22.745Z,19.40
2022-09-30T01:53:22.732Z,19.90
2022-09-30T01:54:22.723Z,20.00
2022-09-30T01:55:22.712Z,19.30
2022-09-30T01:56:22.702Z,17.90
2022-09-30T01:57:22.690Z,20.70
2022-09-30T01:58:22.680Z,21.00
2022-09-30T01:59:22.869Z,21.40
2022-09-30T02:00:22.661Z,23.30
2022-09-30T02:01:22.667Z,22.10
2022-09-30T02:02:22.688Z,21.70
2022-09-30T02:03:22.629Z,21.70
2022-09-30T02:04:22.621Z,21.30
2022-09-30T02:05:22.607Z,22.00
2022-09-30T02:06:22.598Z,22.10
2022-09-30T02:07:22.588Z,20.90
2022-09-30T02:08:22.576Z,20.30
2022-09-30T02:09:22.690Z,19.70
2022-09-30T02:10:22.558Z,20.10
2022-09-30T02:11:22.543Z,19.70
2022-09-30T02:12:22.537Z,19.90
2022-09-30T02:13:22.524Z,21.30
2022-09-30T02:14:22.516Z,20.40
2022-09-30T02:15:22.504Z,19.80
2022-09-30T02:16:22.571Z,19.10
2022-09-30T02:17:22.481Z,19.10
2022-09-30T02:18:22.475Z,19.30
2022-09-30T02:19:22.520Z,19.40
2022-09-30T02:20:22.462Z,19.00
2022-09-30T02:21:22.462Z,19.30
2022-09-30T02:22:22.433Z,18.40
2022-09-30T02:23:22.420Z,18.70
2022-09-30T02:24:22.411Z,19.50
2022-09-30T02:25:22.399Z,19.10
2022-09-30T02:26:22.388Z,19.40
2022-09-30T02:27:22.381Z,19.50
2022-09-30T02:28:22.369Z,20.80
2022-09-30T02:29:22.468Z,21.60
2022-09-30T02:30:22.348Z,22.40
2022-09-30T02:31:22.379Z,22.20
2022-09-30T02:32:22.328Z,21.40
2022-09-30T02:33:22.315Z,21.70
2022-09-30T02:34:22.305Z,20.80
2022-09-30T02:35:22.294Z,20.80
2022-09-30T02:36:22.284Z,19.80
2022-09-30T02:37:22.274Z,18.70
2022-09-30T02:38:22.261Z,18.50
2022-09-30T02:39:22.374Z,18.80
2022-09-30T02:40:22.248Z,19.00
2022-09-30T02:41:22.234Z,19.40
2022-09-30T02:42:22.221Z,18.30
2022-09-30T02:43:22.210Z,18.10
2022-09-30T02:44:22.200Z,17.90
2022-09-30T02:45:22.192Z,17.40
2022-09-30T02:46:22.228Z,16.80
2022-09-30T02:47:22.169Z,18.50
2022-09-30T02:48:22.164Z,18.30
2022-09-30T02:49:22.328Z,19.40
2022-09-30T02:50:22.138Z,20.50
2022-09-30T02:51:22.128Z,20.50
2022-09-30T02:52:22.119Z,20.30
2022-09-30T02:53:22.106Z,19.50
2022-09-30T02:54:22.097Z,19.70
2022-09-30T02:55:22.087Z,18.90
2022-09-30T02:56:22.075Z,18.70
2022-09-30T02:57:22.065Z,19.30
2022-09-30T02:58:22.055Z,18.90
2022-09-30T02:59:22.100Z,18.10
2022-09-30T03:00:22.036Z,18.20
2022-09-30T03:01:22.085Z,18.20
2022-09-30T03:02:22.056Z,18.20
2022-09-30T03:03:22.003Z,17.40
2022-09-30T03:04:21.990Z,17.90
2022-09-30T03:05:21.981Z,17.00
2022-09-30T03:06:21.971Z,17.90
2022-09-30T03:07:21.963Z,17.50
2022-09-30T03:08:21.951Z,18.20
2022-09-30T03:09:22.053Z,17.60
2022-09-30T03:10:21.929Z,17.10
2022-09-30T03:11:21.918Z,18.00
2022-09-30T03:12:21.906Z,18.50
2022-09-30T03:13:21.895Z,18.90
2022-09-30T03:14:21.885Z,18.80
2022-09-30T03:15:21.876Z,17.90
2022-09-30T03:16:21.956Z,17.30
2022-09-30T03:17:21.864Z,18.70
2022-09-30T03:18:21.843Z,19.60
2022-09-30T03:19:21.933Z,19.70
2022-09-30T03:20:21.823Z,19.90
2022-09-30T03:21:21.813Z,20.60
2022-09-30T03:22:21.801Z,21.10
2022-09-30T03:23:21.790Z,21.60
2022-09-30T03:24:21.780Z,21.30
2022-09-30T03:25:21.769Z,21.10
2022-09-30T03:26:21.760Z,22.20
2022-09-30T03:27:21.749Z,25.40
2022-09-30T03:28:21.737Z,24.50
2022-09-30T03:29:21.755Z,24.10
2022-09-30T03:30:24.567Z,22.50
2022-09-30T03:31:21.783Z,22.50
2022-09-30T03:32:21.695Z,20.40
2022-09-30T03:33:21.684Z,20.20
2022-09-30T03:34:21.674Z,19.40
2022-09-30T03:35:21.665Z,18.90
2022-09-30T03:36:21.653Z,18.60
2022-09-30T03:37:21.641Z,18.70
2022-09-30T03:38:21.632Z,18.80
2022-09-30T03:39:21.619Z,20.00
2022-09-30T03:40:21.602Z,19.20
2022-09-30T03:41:21.598Z,19.30
2022-09-30T03:42:23.086Z,19.70
2022-09-30T03:43:21.578Z,18.60
2022-09-30T03:44:21.565Z,19.20
2022-09-30T03:45:21.554Z,17.90
2022-09-30T03:46:21.581Z,18.60
2022-09-30T03:47:21.535Z,18.50
2022-09-30T03:48:21.519Z,19.20
2022-09-30T03:49:21.570Z,18.60
2022-09-30T03:50:21.501Z,18.20
2022-09-30T03:51:21.492Z,17.70
2022-09-30T03:52:21.479Z,18.50
2022-09-30T03:53:21.467Z,18.10
2022-09-30T03:54:21.458Z,17.90
2022-09-30T03:55:21.447Z,17.80
2022-09-30T03:56:21.438Z,17.40
2022-09-30T03:57:21.425Z,18.10
2022-09-30T03:58:21.415Z,20.40
2022-09-30T03:59:21.409Z,20.90
2022-09-30T04:00:21.393Z,22.10
2022-09-30T04:01:21.505Z,21.80
2022-09-30T04:02:21.448Z,22.60
2022-09-30T04:03:21.360Z,23.40
2022-09-30T04:04:21.348Z,22.40
2022-09-30T04:05:21.337Z,22.80
2022-09-30T04:06:21.327Z,22.90
2022-09-30T04:07:21.315Z,23.00
2022-09-30T04:08:21.306Z,21.50
2022-09-30T04:09:21.452Z,20.90
2022-09-30T04:10:21.282Z,21.40
2022-09-30T04:11:21.272Z,20.80
2022-09-30T04:12:21.263Z,20.60
2022-09-30T04:13:21.248Z,19.90
2022-09-30T04:14:21.238Z,19.30
2022-09-30T04:15:21.228Z,20.50
2022-09-30T04:16:21.283Z,18.80
2022-09-30T04:17:21.206Z,19.20
2022-09-30T04:18:21.194Z,18.90
2022-09-30T04:19:21.239Z,18.30
2022-09-30T04:20:21.174Z,19.20
2022-09-30T04:21:21.164Z,18.20
2022-09-30T04:22:25.538Z,18.20
2022-09-30T04:23:21.140Z,18.30
2022-09-30T04:24:21.132Z,19.50
2022-09-30T04:25:21.120Z,20.00
2022-09-30T04:26:21.113Z,19.20
2022-09-30T04:27:21.097Z,20.30
2022-09-30T04:28:21.086Z,19.80
2022-09-30T04:29:21.130Z,19.60
2022-09-30T04:30:24.991Z,19.10
2022-09-30T04:31:21.123Z,18.60
2022-09-30T04:32:21.043Z,18.20
2022-09-30T04:33:21.031Z,18.40
2022-09-30T04:34:21.019Z,17.30
2022-09-30T04:35:21.009Z,17.10
2022-09-30T04:36:20.998Z,17.00
2022-09-30T04:37:20.986Z,16.50
2022-09-30T04:38:20.979Z,17.00
2022-09-30T04:39:20.965Z,18.80
2022-09-30T04:40:20.954Z,18.00
2022-09-30T04:41:20.946Z,18.10
2022-09-30T04:42:20.932Z,18.10
2022-09-30T04:43:20.921Z,18.00
2022-09-30T04:44:20.911Z,17.70
2022-09-30T04:45:20.902Z,18.10
2022-09-30T04:46:20.887Z,17.60
2022-09-30T04:47:20.878Z,17.70
2022-09-30T04:48:20.868Z,18.50
2022-09-30T04:49:20.946Z,19.30
2022-09-30T04:50:20.845Z,19.60
2022-09-30T04:51:20.834Z,20.10
2022-09-30T04:52:20.824Z,19.30
2022-09-30T04:53:20.815Z,20.90
2022-09-30T04:54:20.802Z,20.30
2022-09-30T04:55:20.791Z,20.00
2022-09-30T04:56:20.779Z,19.80
2022-09-30T04:57:20.770Z,20.50
2022-09-30T04:58:20.760Z,20.10
2022-09-30T04:59:20.847Z,20.30
2022-09-30T05:00:20.736Z,20.30
2022-09-30T05:01:20.770Z,19.40
2022-09-30T05:02:20.747Z,19.50
2022-09-30T05:03:20.702Z,19.30
2022-09-30T05:04:20.692Z,18.80
2022-09-30T05:05:20.680Z,17.30
2022-09-30T05:06:20.668Z,17.60
2022-09-30T05:07:20.660Z,16.80
2022-09-30T05:08:20.648Z,17.60
2022-09-30T05:09:20.788Z,18.70
2022-09-30T05:10:20.626Z,19.20
2022-09-30T05:11:20.613Z,19.50
2022-09-30T05:12:20.605Z,19.30
2022-09-30T05:13:20.592Z,18.50
2022-09-30T05:14:20.581Z,18.80
2022-09-30T05:15:20.571Z,17.70
2022-09-30T05:16:20.634Z,17.90
2022-09-30T05:17:20.549Z,17.70
2022-09-30T05:18:20.537Z,18.00
2022-09-30T05:19:20.584Z,17.70
2022-09-30T05:20:21.408Z,18.20
2022-09-30T05:21:20.513Z,17.80
2022-09-30T05:22:20.493Z,18.00
2022-09-30T05:23:20.483Z,18.40
2022-09-30T05:24:20.471Z,18.40
2022-09-30T05:25:20.461Z,17.80
2022-09-30T05:26:20.451Z,18.10
2022-09-30T05:27:20.438Z,17.40
2022-09-30T05:28:20.428Z,18.30
2022-09-30T05:29:20.487Z,17.70
2022-09-30T05:30:20.405Z,17.00
2022-09-30T05:31:20.411Z,16.50
2022-09-30T05:32:20.386Z,16.20
2022-09-30T05:33:20.370Z,16.00
2022-09-30T05:34:20.361Z,15.70
2022-09-30T05:35:20.355Z,16.00
2022-09-30T05:36:20.342Z,15.40
2022-09-30T05:37:20.331Z,16.60
2022-09-30T05:38:20.318Z,16.90
2022-09-30T05:39:20.340Z,17.60
2022-09-30T05:40:20.297Z,16.70
2022-09-30T05:41:20.287Z,17.30
2022-09-30T05:42:20.273Z,17.60
2022-09-30T05:43:20.265Z,18.00
2022-09-30T05:44:20.255Z,17.60
2022-09-30T05:45:20.242Z,18.30
2022-09-30T05:46:20.313Z,17.50
2022-09-30T05:47:20.224Z,18.70
2022-09-30T05:48:20.212Z,16.00
2022-09-30T05:49:20.265Z,16.90
2022-09-30T05:50:20.189Z,16.30
2022-09-30T05:51:20.179Z,14.40
2022-09-30T05:52:20.159Z,15.10
2022-09-30T05:53:20.157Z,14.40
2022-09-30T05:54:20.145Z,14.40
2022-09-30T05:55:20.134Z,13.90
2022-09-30T05:56:20.124Z,14.50
2022-09-30T05:57:20.115Z,14.70
2022-09-30T05:58:20.103Z,14.40
2022-09-30T05:59:20.142Z,14.30
2022-09-30T06:00:20.082Z,14.10
2022-09-30T06:01:20.070Z,14.30
2022-09-30T06:02:20.187Z,14.50
2022-09-30T06:03:20.049Z,13.40
2022-09-30T06:04:20.039Z,12.90
2022-09-30T06:05:20.028Z,12.60
2022-09-30T06:06:20.019Z,12.10
2022-09-30T06:07:20.008Z,11.50
2022-09-30T06:08:19.998Z,12.30
2022-09-30T06:09:20.098Z,12.80
2022-09-30T06:10:19.976Z,14.30
2022-09-30T06:11:19.969Z,14.00
2022-09-30T06:12:19.957Z,12.50
2022-09-30T06:13:19.946Z,12.90
2022-09-30T06:14:19.937Z,12.80
2022-09-30T06:15:19.927Z,12.30
2022-09-30T06:16:19.968Z,12.70
2022-09-30T06:17:19.906Z,12.80
2022-09-30T06:18:19.908Z,14.80
2022-09-30T06:19:19.885Z,15.10
2022-09-30T06:20:19.876Z,15.50
2022-09-30T06:21:19.870Z,15.10
2022-09-30T06:22:19.857Z,16.90
2022-09-30T06:23:19.845Z,16.40
2022-09-30T06:24:19.835Z,17.00
2022-09-30T06:25:19.823Z,16.30
2022-09-30T06:26:19.813Z,16.60
2022-09-30T06:27:19.807Z,16.10
2022-09-30T06:28:19.794Z,14.20
2022-09-30T06:29:19.834Z,13.90
2022-09-30T06:30:19.779Z,12.10
2022-09-30T06:31:19.776Z,11.40
2022-09-30T06:32:19.757Z,12.50
2022-09-30T06:33:19.746Z,13.10
2022-09-30T06:34:19.735Z,14.50
2022-09-30T06:35:19.726Z,14.20
2022-09-30T06:36:19.717Z,13.30
2022-09-30T06:37:19.710Z,11.90
2022-09-30T06:38:19.697Z,12.60
2022-09-30T06:39:19.752Z,12.60
2022-09-30T06:40:19.679Z,13.00
2022-09-30T06:41:19.669Z,13.70
2022-09-30T06:42:19.659Z,13.80
2022-09-30T06:43:19.650Z,13.60
2022-09-30T06:44:19.640Z,13.90
2022-09-30T06:45:30.484Z,13.80
2022-09-30T06:46:25.253Z,14.10
2022-09-30T06:47:25.310Z,14.30
2022-09-30T06:48:33.314Z,13.80
2022-09-30T06:49:19.594Z,12.60
2022-09-30T06:50:25.499Z,13.20
2022-09-30T06:51:19.574Z,12.90
2022-09-30T06:52:19.565Z,13.10
2022-09-30T06:53:19.555Z,12.90
2022-09-30T06:54:19.545Z,13.20
2022-09-30T06:55:19.536Z,12.80
2022-09-30T06:56:19.527Z,12.90
2022-09-30T06:57:19.518Z,12.80
2022-09-30T06:58:19.508Z,12.70
2022-09-30T06:59:19.500Z,12.90
2022-09-30T07:00:19.489Z,12.30
2022-09-30T07:01:19.502Z,12.20
2022-09-30T07:02:19.569Z,12.30
2022-09-30T07:03:19.460Z,12.00
2022-09-30T07:04:19.452Z,12.10
2022-09-30T07:05:19.439Z,11.80
2022-09-30T07:06:19.431Z,11.50
2022-09-30T07:07:19.424Z,11.50
2022-09-30T07:08:19.415Z,11.90
2022-09-30T07:09:19.455Z,12.00
2022-09-30T07:10:19.398Z,11.80
2022-09-30T07:11:19.391Z,11.80
2022-09-30T07:12:19.379Z,12.20
2022-09-30T07:13:19.375Z,11.90
2022-09-30T07:14:19.370Z,11.90
2022-09-30T07:15:19.357Z,11.20
2022-09-30T07:16:19.460Z,11.30
2022-09-30T07:17:19.335Z,11.20
2022-09-30T07:18:19.323Z,11.70
2022-09-30T07:19:19.393Z,12.00
2022-09-30T07:20:19.306Z,11.40
2022-09-30T07:21:19.296Z,11.80
2022-09-30T07:22:19.288Z,11.70
2022-09-30T07:23:22.127Z,11.80
2022-09-30T07:24:19.271Z,11.80
2022-09-30T07:25:19.259Z,11.30
2022-09-30T07:26:19.261Z,11.00
2022-09-30T07:27:19.244Z,11.40
2022-09-30T07:28:19.234Z,11.30
2022-09-30T07:29:19.223Z,10.90
2022-09-30T07:30:26.648Z,10.80
2022-09-30T07:31:35.739Z,11.30
2022-09-30T07:32:19.247Z,11.30
2022-09-30T07:33:19.192Z,11.60
2022-09-30T07:34:19.191Z,11.30
2022-09-30T07:35:19.171Z,11.20
2022-09-30T07:36:19.164Z,11.50
2022-09-30T07:37:19.155Z,11.40
2022-09-30T07:38:19.148Z,11.10
2022-09-30T07:39:19.137Z,11.40
2022-09-30T07:40:19.130Z,11.10
2022-09-30T07:41:19.120Z,11.00
2022-09-30T07:42:22.459Z,10.80
2022-09-30T07:43:19.125Z,11.50
2022-09-30T07:44:19.093Z,11.30
2022-09-30T07:45:19.085Z,11.60
2022-09-30T07:46:19.076Z,10.80
2022-09-30T07:47:19.069Z,11.10
2022-09-30T07:48:19.061Z,11.00
2022-09-30T07:49:19.077Z,11.30
2022-09-30T07:50:19.041Z,11.10
2022-09-30T07:51:19.036Z,11.40
2022-09-30T07:52:19.029Z,11.20
2022-09-30T07:53:19.016Z,11.00
2022-09-30T07:54:19.011Z,11.50
2022-09-30T07:55:19.000Z,11.90
2022-09-30T07:56:18.993Z,12.30
2022-09-30T07:57:18.985Z,11.90
2022-09-30T07:58:18.975Z,11.60
2022-09-30T07:59:19.005Z,11.40
2022-09-30T08:00:41.183Z,12.00
2022-09-30T08:01:19.011Z,11.50
2022-09-30T08:02:19.070Z,11.20
2022-09-30T08:03:18.934Z,10.90
2022-09-30T08:04:18.926Z,11.20
2022-09-30T08:05:18.918Z,10.90
2022-09-30T08:06:18.911Z,10.90
2022-09-30T08:07:18.909Z,11.40
2022-09-30T08:08:18.894Z,10.50
2022-09-30T08:09:18.907Z,10.40
2022-09-30T08:11:18.871Z,10.60
2022-09-30T08:12:18.861Z,10.90
2022-09-30T08:13:18.858Z,11.00
2022-09-30T08:14:18.876Z,10.40
2022-09-30T08:15:18.837Z,10.10
2022-09-30T08:16:18.860Z,10.20
2022-09-30T08:17:18.821Z,10.90
2022-09-30T08:18:18.811Z,10.40
2022-09-30T08:19:18.806Z,10.60
2022-09-30T08:20:22.326Z,11.00
2022-09-30T08:21:18.911Z,10.20
2022-09-30T08:22:18.781Z,10.50
2022-09-30T08:23:18.772Z,10.60
2022-09-30T08:24:18.901Z,10.60
2022-09-30T08:25:18.756Z,10.50
2022-09-30T08:26:18.748Z,11.00
2022-09-30T08:27:18.787Z,11.30
2022-09-30T08:28:18.734Z,11.80
2022-09-30T08:29:20.748Z,12.60
2022-09-30T08:30:18.717Z,12.00
2022-09-30T08:31:18.753Z,12.00
2022-09-30T08:32:18.761Z,11.40
2022-09-30T08:33:18.694Z,10.80
2022-09-30T08:34:18.709Z,11.40
2022-09-30T08:35:18.679Z,11.10
2022-09-30T08:36:18.672Z,10.80
2022-09-30T08:37:18.687Z,10.60
2022-09-30T08:38:18.660Z,11.20
2022-09-30T08:39:18.648Z,12.00
2022-09-30T08:40:18.642Z,12.20
2022-09-30T08:41:18.635Z,11.90
2022-09-30T08:42:36.066Z,11.60
2022-09-30T08:43:18.617Z,11.70
2022-09-30T08:44:18.685Z,11.50
2022-09-30T08:45:18.614Z,11.20
2022-09-30T08:46:18.659Z,11.10
2022-09-30T08:47:18.588Z,11.20
2022-09-30T08:48:18.589Z,11.10
2022-09-30T08:49:18.616Z,11.10
2022-09-30T08:50:18.565Z,11.10
2022-09-30T08:51:18.558Z,10.70
2022-09-30T08:52:30.230Z,10.20
2022-09-30T08:53:18.543Z,10.70
2022-09-30T08:54:18.537Z,9.90
2022-09-30T08:55:18.528Z,10.00
2022-09-30T08:56:18.524Z,10.40
2022-09-30T08:57:18.515Z,10.50
2022-09-30T08:58:18.507Z,10.40
2022-09-30T08:59:18.532Z,10.30
2022-09-30T09:00:18.498Z,9.70
2022-09-30T09:01:18.531Z,9.40
2022-09-30T09:02:18.507Z,9.20
2022-09-30T09:03:18.470Z,9.60
2022-09-30T09:04:18.565Z,9.40
2022-09-30T09:05:18.457Z,9.40
2022-09-30T09:06:18.449Z,8.70
2022-09-30T09:07:18.440Z,8.70
2022-09-30T09:08:18.436Z,9.10
2022-09-30T09:09:18.561Z,8.90
2022-09-30T09:10:18.419Z,8.70
2022-09-30T09:11:18.413Z,8.40
2022-09-30T09:12:18.456Z,8.40
2022-09-30T09:13:18.397Z,8.80
2022-09-30T09:14:18.409Z,8.60
2022-09-30T09:15:18.387Z,9.00
2022-09-30T09:16:18.430Z,9.20
2022-09-30T09:17:18.411Z,9.40
2022-09-30T09:18:23.648Z,8.80
2022-09-30T09:19:18.389Z,8.40
2022-09-30T09:20:18.349Z,8.30
2022-09-30T09:21:18.343Z,8.90
2022-09-30T09:22:22.473Z,8.50
2022-09-30T09:23:18.329Z,8.80
2022-09-30T09:24:18.329Z,8.40
2022-09-30T09:25:18.315Z,8.90
2022-09-30T09:26:18.307Z,8.90
2022-09-30T09:27:18.350Z,9.20
2022-09-30T09:28:18.350Z,9.00
2022-09-30T09:29:18.336Z,8.60
2022-09-30T09:30:18.281Z,8.80
2022-09-30T09:31:18.309Z,8.50
2022-09-30T09:32:18.269Z,8.60
2022-09-30T09:33:18.261Z,9.10
2022-09-30T09:34:18.255Z,8.50
2022-09-30T09:35:18.247Z,8.70
2022-09-30T09:36:18.241Z,8.40
2022-09-30T09:37:18.237Z,8.00
2022-09-30T09:38:18.226Z,8.00
2022-09-30T09:39:18.234Z,7.70
2022-09-30T09:40:18.248Z,8.00
2022-09-30T09:41:18.215Z,7.60
2022-09-30T09:42:18.209Z,8.40
2022-09-30T09:43:18.193Z,8.40
2022-09-30T09:44:18.236Z,8.00
2022-09-30T09:45:18.183Z,7.60
2022-09-30T09:46:18.232Z,8.40
2022-09-30T09:47:18.167Z,8.30
2022-09-30T09:48:18.161Z,8.40
2022-09-30T09:49:18.157Z,7.50
2022-09-30T09:50:18.221Z,7.50
2022-09-30T09:51:18.142Z,7.40
2022-09-30T09:52:18.136Z,7.50
2022-09-30T09:53:18.129Z,7.30
2022-09-30T09:54:18.142Z,7.60
2022-09-30T09:55:18.118Z,7.30
2022-09-30T09:56:18.110Z,7.30
2022-09-30T09:57:18.102Z,7.20
2022-09-30T09:58:18.097Z,6.70
2022-09-30T09:59:19.989Z,6.90
2022-09-30T10:00:18.085Z,6.80
2022-09-30T10:01:18.100Z,6.80
2022-09-30T10:02:18.106Z,6.60
2022-09-30T10:03:18.101Z,6.10
2022-09-30T10:04:18.055Z,6.70
2022-09-30T10:05:18.051Z,6.50
2022-09-30T10:06:18.046Z,6.70
2022-09-30T10:07:18.040Z,6.90
2022-09-30T10:08:18.033Z,6.40
2022-09-30T10:09:18.127Z,6.70
2022-09-30T10:10:23.017Z,6.80
2022-09-30T10:11:18.015Z,6.40
2022-09-30T10:12:18.008Z,6.30
2022-09-30T10:13:18.011Z,6.40
2022-09-30T10:14:17.997Z,5.80
2022-09-30T10:15:17.994Z,5.70
2022-09-30T10:16:18.094Z,5.70
2022-09-30T10:17:17.982Z,5.70
2022-09-30T10:18:17.974Z,5.50
2022-09-30T10:19:17.968Z,5.00
2022-09-30T10:20:17.961Z,5.10
2022-09-30T10:21:17.955Z,4.80
2022-09-30T10:22:17.948Z,4.80
2022-09-30T10:23:17.942Z,5.10
2022-09-30T10:24:17.939Z,4.90
2022-09-30T10:25:17.933Z,5.00
2022-09-30T10:26:18.008Z,4.90
2022-09-30T10:27:17.918Z,5.30
2022-09-30T10:28:17.934Z,5.00
2022-09-30T10:29:17.908Z,5.00
2022-09-30T10:30:17.901Z,5.10
2022-09-30T10:31:17.942Z,5.40
2022-09-30T10:32:17.935Z,4.90
2022-09-30T10:33:17.882Z,4.90
2022-09-30T10:34:17.877Z,4.60
2022-09-30T10:35:17.873Z,4.20
2022-09-30T10:36:17.865Z,3.80
2022-09-30T10:37:17.859Z,4.00
2022-09-30T10:38:17.855Z,4.30
2022-09-30T10:39:17.862Z,4.20
2022-09-30T10:40:17.846Z,3.70
2022-09-30T10:41:17.847Z,3.70
2022-09-30T10:42:20.255Z,3.90
2022-09-30T10:43:17.825Z,3.70
2022-09-30T10:44:17.820Z,3.70
2022-09-30T10:45:17.815Z,4.10
2022-09-30T10:46:27.198Z,3.60
2022-09-30T10:47:17.803Z,3.40
2022-09-30T10:48:17.797Z,3.40
2022-09-30T10:49:17.792Z,3.50
2022-09-30T10:50:17.786Z,3.60
2022-09-30T10:51:17.781Z,3.40
2022-09-30T10:52:17.779Z,3.40
2022-09-30T10:53:17.769Z,3.10
2022-09-30T10:54:17.764Z,3.40
2022-09-30T10:55:18.788Z,3.30
2022-09-30T10:56:17.757Z,3.00
2022-09-30T10:57:17.747Z,3.10
2022-09-30T10:58:17.742Z,3.00
2022-09-30T10:59:17.737Z,2.80
2022-09-30T11:00:17.737Z,3.10
2022-09-30T11:01:17.760Z,3.20
2022-09-30T11:02:17.753Z,2.90
2022-09-30T11:03:17.761Z,2.80
2022-09-30T11:04:17.707Z,2.80
2022-09-30T11:05:17.703Z,2.80
2022-09-30T11:06:17.699Z,3.00
2022-09-30T11:07:17.693Z,2.70
2022-09-30T11:08:17.686Z,2.60
2022-09-30T11:09:17.680Z,3.00
2022-09-30T11:10:17.676Z,2.90
2022-09-30T11:11:17.679Z,2.80
2022-09-30T11:12:17.666Z,2.70
2022-09-30T11:13:17.661Z,2.70
2022-09-30T11:14:17.654Z,2.90
2022-09-30T11:15:17.657Z,2.80
2022-09-30T11:16:17.687Z,3.00
2022-09-30T11:17:22.452Z,3.30
2022-09-30T11:18:17.634Z,3.00
2022-09-30T11:19:17.628Z,3.00
2022-09-30T11:20:17.659Z,2.80
2022-09-30T11:21:17.617Z,3.20
2022-09-30T11:22:17.613Z,3.00
2022-09-30T11:23:17.608Z,3.10
2022-09-30T11:24:17.603Z,2.90
2022-09-30T11:25:17.598Z,2.60
2022-09-30T11:26:17.592Z,2.60
2022-09-30T11:27:17.586Z,2.40
2022-09-30T11:28:17.687Z,2.40
2022-09-30T11:29:17.575Z,2.10
2022-09-30T11:30:17.571Z,2.10
2022-09-30T11:31:17.616Z,2.10
2022-09-30T11:32:17.562Z,3.00
2022-09-30T11:33:17.554Z,2.60
2022-09-30T11:34:17.550Z,2.70
2022-09-30T11:35:17.546Z,2.20
2022-09-30T11:36:17.538Z,2.00
2022-09-30T11:37:17.536Z,2.10
2022-09-30T11:38:17.529Z,1.90
2022-09-30T11:39:17.524Z,1.90
2022-09-30T11:40:17.521Z,2.20
2022-09-30T11:41:17.516Z,2.00
2022-09-30T11:42:17.512Z,1.90
2022-09-30T11:43:17.506Z,2.00
2022-09-30T11:44:17.501Z,2.00
2022-09-30T11:45:17.496Z,2.00
2022-09-30T11:46:17.559Z,2.00
2022-09-30T11:47:17.487Z,1.80
2022-09-30T11:48:17.481Z,2.10
2022-09-30T11:49:17.476Z,1.90
2022-09-30T11:50:17.471Z,1.70
2022-09-30T11:51:17.468Z,1.40
2022-09-30T11:52:17.461Z,1.50
2022-09-30T11:53:17.456Z,1.40
2022-09-30T11:54:17.456Z,1.40
2022-09-30T11:55:17.447Z,1.60
2022-09-30T11:56:17.442Z,1.50
2022-09-30T11:57:17.437Z,1.30
2022-09-30T11:58:39.768Z,1.40
2022-09-30T11:59:17.436Z,1.40
2022-09-30T12:00:17.428Z,1.30
2022-09-30T12:01:17.424Z,1.50
2022-09-30T12:02:17.431Z,1.50
2022-09-30T12:03:17.437Z,1.50
2022-09-30T12:04:17.404Z,1.40
2022-09-30T12:05:17.404Z,1.30
2022-09-30T12:06:17.390Z,1.50
2022-09-30T12:07:17.386Z,1.60
2022-09-30T12:08:17.392Z,1.50
2022-09-30T12:09:17.383Z,1.60
2022-09-30T12:10:17.379Z,1.30
2022-09-30T12:11:17.377Z,1.20
2022-09-30T12:12:17.495Z,1.00
2022-09-30T12:13:17.364Z,1.30
2022-09-30T12:14:17.359Z,1.40
2022-09-30T12:15:17.354Z,1.20
2022-09-30T12:16:17.408Z,1.30
2022-09-30T12:17:17.347Z,1.20
2022-09-30T12:18:17.340Z,1.10
2022-09-30T12:19:20.625Z,1.70
2022-09-30T12:20:17.329Z,1.70
2022-09-30T12:21:17.326Z,1.60
2022-09-30T12:22:17.321Z,1.70
2022-09-30T12:23:17.315Z,1.70
2022-09-30T12:24:17.312Z,1.30
2022-09-30T12:25:17.307Z,1.50
2022-09-30T12:26:17.304Z,1.30
2022-09-30T12:27:17.302Z,1.50
2022-09-30T12:28:17.370Z,1.40
2022-09-30T12:29:17.288Z,1.40
2022-09-30T12:30:17.285Z,1.00
2022-09-30T12:31:17.375Z,1.00
2022-09-30T12:32:17.277Z,0.90
2022-09-30T12:33:17.270Z,1.10
2022-09-30T12:34:17.267Z,1.20
2022-09-30T12:35:17.265Z,1.00
2022-09-30T12:36:17.257Z,1.30
2022-09-30T12:37:17.252Z,1.00
2022-09-30T12:38:17.248Z,1.00
2022-09-30T12:39:17.253Z,1.10
2022-09-30T12:40:17.242Z,1.10
2022-09-30T12:41:17.233Z,1.20
2022-09-30T12:42:17.229Z,0.80
2022-09-30T12:43:17.235Z,1.00
2022-09-30T12:44:17.222Z,0.90
2022-09-30T12:45:17.217Z,0.80
2022-09-30T12:46:17.245Z,0.90
2022-09-30T12:47:17.208Z,0.90
2022-09-30T12:48:17.845Z,0.80
2022-09-30T12:49:17.202Z,1.00
2022-09-30T12:50:17.194Z,0.90
2022-09-30T12:51:17.188Z,0.80
2022-09-30T12:52:17.189Z,0.80
2022-09-30T12:53:17.179Z,0.80
2022-09-30T12:54:17.176Z,0.90
2022-09-30T12:55:17.173Z,1.00
2022-09-30T12:56:17.168Z,0.80
2022-09-30T12:57:17.163Z,0.90
2022-09-30T12:58:17.160Z,0.80
2022-09-30T12:59:17.156Z,0.90
2022-09-30T13:00:17.150Z,0.90
2022-09-30T13:01:17.246Z,1.00